Time;durP1;ratioP1;P1;durP2;ratioP2;P2;SDS_P1;SDS_P2;PMS_P1;PMS_P2;Temp;Humidity;BMP_temperature;BMP_pressure;BME280_temperature;BME280_humidity;BME280_pressure;Samples;Min_cycle;Max_cycle;Signal;HPM_P1;HPM_P2
2021/01/28 16:16:16;;;;;;;2.50;1.55;;;20.30;60.60;;;;;;4989130;27;20200;-73
2021/01/28 16:18:38;;;;;;;3.80;1.60;;;20.80;56.70;;;;;;4985886;27;20069;-72
2021/01/28 16:21:02;;;;;;;1.58;1.00;;;21.40;54.60;;;;;;4946903;27;20110;-71
2021/01/28 16:23:23;;;;;;;2.22;1.10;;;22.00;53.20;;;;;;4948549;28;20051;-72
2021/01/28 16:25:46;;;;;;;2.45;1.33;;;22.50;51.70;;;;;;4965107;27;20536;-72
2021/01/28 16:28:09;;;;;;;1.80;1.10;;;23.00;50.30;;;;;;4968308;27;20074;-72
2021/01/28 16:30:31;;;;;;;4.40;1.05;;;23.30;48.60;;;;;;4968689;27;20038;-73
2021/01/28 16:32:55;;;;;;;1.50;1.05;;;23.70;47.90;;;;;;4964346;27;20484;-73
2021/01/28 16:35:21;;;;;;;1.20;0.90;;;23.90;47.10;;;;;;4948026;28;20050;-71
2021/01/28 16:37:44;;;;;;;1.52;0.80;;;24.10;46.60;;;;;;4946865;27;20134;-72
2021/01/28 16:40:09;;;;;;;1.20;0.77;;;24.20;45.90;;;;;;4944792;28;20514;-72
2021/01/28 16:42:31;;;;;;;1.60;0.88;;;24.30;45.50;;;;;;4945714;28;20473;-70
2021/01/28 16:44:54;;;;;;;3.13;1.45;;;24.50;45.40;;;;;;4945144;28;20055;-70
2021/01/28 16:47:16;;;;;;;3.70;2.40;;;24.50;45.00;;;;;;4951935;27;20048;-73
2021/01/28 16:49:38;;;;;;;4.40;2.25;;;24.60;44.80;;;;;;4930670;27;20047;-71
2021/01/28 16:51:59;;;;;;;3.67;2.22;;;24.60;44.40;;;;;;4959118;27;20511;-68
2021/01/28 16:54:21;;;;;;;2.53;1.50;;;24.70;44.20;;;;;;4962815;27;20042;-70
2021/01/28 16:56:44;;;;;;;2.33;1.35;;;24.80;43.90;;;;;;4970741;27;20057;-72
2021/01/28 16:59:05;;;;;;;3.30;1.67;;;24.80;44.10;;;;;;4984400;27;20049;-71
2021/01/28 17:01:28;;;;;;;2.28;1.38;;;24.80;43.80;;;;;;4976588;27;20137;-72
2021/01/28 17:03:49;;;;;;;1.45;1.17;;;24.90;43.70;;;;;;4973137;27;20050;-70
2021/01/28 17:06:11;;;;;;;2.05;1.20;;;24.90;43.50;;;;;;4947022;28;20066;-72
2021/01/28 17:08:32;;;;;;;1.52;1.10;;;24.90;43.40;;;;;;4948871;28;20047;-67
2021/01/28 17:10:54;;;;;;;1.38;1.02;;;24.90;43.30;;;;;;4949031;28;20050;-68
2021/01/28 17:13:15;;;;;;;2.88;0.90;;;24.90;43.30;;;;;;4948388;28;20134;-71
2021/01/28 17:15:37;;;;;;;1.65;0.90;;;24.90;43.20;;;;;;4948343;27;20059;-70
2021/01/28 17:17:58;;;;;;;1.92;0.93;;;24.90;43.00;;;;;;4949368;28;20285;-69
2021/01/28 17:20:22;;;;;;;1.73;1.08;;;24.90;42.80;;;;;;4948450;27;20463;-68
2021/01/28 17:22:44;;;;;;;1.50;1.00;;;24.90;43.00;;;;;;4949224;28;20049;-69
2021/01/28 17:25:08;;;;;;;3.20;0.90;;;24.90;43.10;;;;;;4960963;27;20051;-68
2021/01/28 17:27:30;;;;;;;2.15;1.15;;;25.00;42.90;;;;;;4956013;27;20053;-70
2021/01/28 17:29:51;;;;;;;0.98;0.65;;;24.90;42.70;;;;;;4955714;27;20299;-72
2021/01/28 17:32:13;;;;;;;0.95;0.70;;;25.00;42.80;;;;;;4955710;27;20043;-67
2021/01/28 17:34:38;;;;;;;1.27;0.70;;;25.00;42.70;;;;;;4955474;27;20099;-68
2021/01/28 17:37:02;;;;;;;1.63;0.68;;;25.00;42.60;;;;;;4954865;27;20058;-68
2021/01/28 17:39:24;;;;;;;1.85;0.70;;;25.00;42.80;;;;;;4955156;27;20054;-70
2021/01/28 17:41:45;;;;;;;2.03;0.68;;;25.00;42.70;;;;;;4956321;27;20083;-67
2021/01/28 17:44:09;;;;;;;1.10;0.60;;;25.00;42.60;;;;;;4955923;27;20441;-67
2021/01/28 17:46:32;;;;;;;1.77;0.80;;;25.00;42.60;;;;;;4937871;27;20050;-70
2021/01/28 17:48:54;;;;;;;1.15;0.88;;;25.10;42.60;;;;;;4955910;27;20090;-70
2021/01/28 17:51:15;;;;;;;1.35;0.93;;;25.10;42.40;;;;;;4956065;27;20047;-70
2021/01/28 17:53:36;;;;;;;1.73;1.13;;;25.10;42.20;;;;;;4956151;27;20043;-70
2021/01/28 17:55:59;;;;;;;2.22;0.63;;;25.10;42.20;;;;;;4940314;27;20051;-70
2021/01/28 17:58:21;;;;;;;1.13;0.85;;;25.10;42.30;;;;;;4935963;28;20541;-70
2021/01/28 18:00:43;;;;;;;1.20;0.77;;;25.00;42.30;;;;;;4936421;28;20345;-70
2021/01/28 18:03:06;;;;;;;1.00;0.60;;;24.90;42.30;;;;;;4935832;28;20557;-70
2021/01/28 18:05:29;;;;;;;0.98;0.63;;;24.80;42.50;;;;;;4935870;28;20097;-69
2021/01/28 18:07:51;;;;;;;1.08;0.68;;;24.80;42.50;;;;;;4935791;28;20043;-69
2021/01/28 18:10:13;;;;;;;0.82;0.73;;;24.80;42.50;;;;;;4936057;28;20048;-70
2021/01/28 18:12:55;;;;;;;1.75;0.80;;;24.70;42.50;;;;;;4935889;28;20132;-70
2021/01/28 18:15:18;;;;;;;2.28;1.25;;;24.60;42.60;;;;;;4935603;28;20077;-70
2021/01/28 18:17:40;;;;;;;0.80;0.77;;;24.60;42.60;;;;;;4935582;28;20499;-69
2021/01/28 18:20:06;;;;;;;1.92;1.10;;;24.50;42.70;;;;;;4936068;28;20548;-69
2021/01/28 18:22:28;;;;;;;1.42;0.80;;;24.50;42.80;;;;;;4935468;28;20047;-69
2021/01/28 18:24:49;;;;;;;4.60;0.80;;;24.40;42.90;;;;;;4945088;27;20047;-70
2021/01/28 18:27:11;;;;;;;1.23;0.90;;;24.40;42.90;;;;;;4955736;27;20058;-69
2021/01/28 18:29:32;;;;;;;1.75;0.85;;;24.40;43.00;;;;;;4955512;27;20050;-69
2021/01/28 18:31:58;;;;;;;0.70;0.50;;;24.30;43.00;;;;;;4955472;27;20046;-70
2021/01/28 18:34:19;;;;;;;1.33;0.75;;;24.20;43.10;;;;;;4955199;27;20072;-69
2021/01/28 18:36:41;;;;;;;0.70;0.70;;;24.10;43.20;;;;;;4955111;27;20055;-69
2021/01/28 18:39:05;;;;;;;1.98;0.90;;;24.10;43.30;;;;;;4935725;27;20164;-69
2021/01/28 18:41:26;;;;;;;1.02;0.60;;;24.10;43.40;;;;;;4955545;27;20047;-69
2021/01/28 18:43:48;;;;;;;2.83;0.98;;;24.00;43.60;;;;;;4955151;27;20051;-70
2021/01/28 18:46:10;;;;;;;1.10;0.98;;;23.90;43.60;;;;;;4954862;27;20047;-70
2021/01/28 18:48:32;;;;;;;3.25;1.08;;;23.90;43.80;;;;;;4955065;27;20138;-69
2021/01/28 18:50:53;;;;;;;2.90;0.85;;;23.90;43.80;;;;;;4954860;27;20560;-69
2021/01/28 18:53:15;;;;;;;1.98;0.98;;;23.80;43.80;;;;;;4954914;27;20067;-69
2021/01/28 18:55:37;;;;;;;1.25;0.80;;;23.80;44.00;;;;;;4942391;27;20105;-69
2021/01/28 18:57:58;;;;;;;1.45;0.98;;;23.70;44.30;;;;;;4935084;28;20092;-70
2021/01/28 19:00:22;;;;;;;0.73;0.60;;;23.60;44.40;;;;;;4934642;28;20051;-70
2021/01/28 19:02:45;;;;;;;1.40;0.93;;;23.60;44.50;;;;;;4934783;28;20101;-70
2021/01/28 19:05:08;;;;;;;0.75;0.70;;;23.50;44.60;;;;;;4934980;28;20138;-70
2021/01/28 19:07:29;;;;;;;2.13;0.90;;;23.50;44.90;;;;;;4935138;28;20047;-70
2021/01/28 19:09:50;;;;;;;0.90;0.73;;;23.40;44.70;;;;;;4934775;28;20065;-69
2021/01/28 19:12:13;;;;;;;2.60;0.90;;;23.40;44.90;;;;;;4934754;28;20043;-69
2021/01/28 19:14:35;;;;;;;0.50;0.50;;;23.40;44.90;;;;;;4934254;28;20529;-69
2021/01/28 19:17:01;;;;;;;1.75;0.88;;;23.40;44.90;;;;;;4934330;28;20054;-69
2021/01/28 19:19:23;;;;;;;0.80;0.70;;;23.40;44.90;;;;;;4934484;28;20504;-70
2021/01/28 19:21:44;;;;;;;1.17;0.77;;;23.30;44.80;;;;;;4934767;28;20056;-70
2021/01/28 19:24:07;;;;;;;1.40;1.00;;;23.30;44.90;;;;;;4937743;27;20499;-69
2021/01/28 19:26:28;;;;;;;0.90;0.80;;;23.30;45.00;;;;;;4954368;27;20404;-70
2021/01/28 19:28:50;;;;;;;1.65;0.93;;;23.30;45.00;;;;;;4954418;27;20055;-70
2021/01/28 19:31:12;;;;;;;4.32;1.27;;;23.30;45.20;;;;;;4954275;27;20039;-69
2021/01/28 19:33:33;;;;;;;1.35;0.73;;;23.30;45.20;;;;;;4954181;27;20460;-70
2021/01/28 19:35:55;;;;;;;4.85;1.38;;;23.20;45.40;;;;;;4954457;27;20499;-70
2021/01/28 19:38:20;;;;;;;1.08;0.75;;;23.10;45.40;;;;;;4954491;27;20043;-70
2021/01/28 19:40:42;;;;;;;1.45;0.90;;;23.10;45.70;;;;;;4954635;27;20047;-71
2021/01/28 19:43:05;;;;;;;1.00;0.85;;;23.10;45.80;;;;;;4954418;27;20050;-70
2021/01/28 19:45:29;;;;;;;1.73;1.08;;;23.00;45.90;;;;;;4954052;27;20046;-70
2021/01/28 19:47:50;;;;;;;1.20;0.88;;;23.00;46.40;;;;;;4953876;27;20047;-69
2021/01/28 19:50:22;;;;;;;2.60;0.80;;;22.90;46.60;;;;;;4953470;27;20039;-70
2021/01/28 19:52:45;;;;;;;0.50;0.50;;;22.90;46.80;;;;;;4954013;27;20086;-70
2021/01/28 19:55:07;;;;;;;2.88;1.00;;;22.90;46.40;;;;;;4945538;27;20047;-70
2021/01/28 19:57:28;;;;;;;1.27;0.90;;;22.80;46.70;;;;;;4933870;28;20048;-70
2021/01/28 19:59:49;;;;;;;0.98;0.75;;;22.80;46.90;;;;;;4933818;28;20427;-70
2021/01/28 20:02:11;;;;;;;1.33;0.82;;;22.80;46.60;;;;;;4933975;28;20055;-70
2021/01/28 20:04:34;;;;;;;1.58;1.10;;;22.80;46.70;;;;;;4934082;28;20048;-70
2021/01/28 20:06:55;;;;;;;1.58;0.90;;;22.80;46.80;;;;;;4934351;28;20043;-70
2021/01/28 20:09:17;;;;;;;2.30;1.10;;;22.80;46.70;;;;;;4933981;28;20051;-70
2021/01/28 20:11:39;;;;;;;2.58;1.15;;;22.80;46.60;;;;;;4934141;28;20212;-70
2021/01/28 20:14:03;;;;;;;2.30;1.20;;;22.80;46.70;;;;;;4933806;28;20249;-69
2021/01/28 20:16:24;;;;;;;1.77;1.02;;;22.70;46.80;;;;;;4934189;28;20542;-70
2021/01/28 20:18:46;;;;;;;1.08;0.80;;;22.70;46.60;;;;;;4934600;28;20059;-69
2021/01/28 20:21:08;;;;;;;0.82;0.80;;;22.70;46.60;;;;;;4935107;28;20052;-70
2021/01/28 20:23:29;;;;;;;1.20;0.80;;;22.70;46.90;;;;;;4934363;28;20572;-70
2021/01/28 20:25:51;;;;;;;1.85;1.15;;;22.70;47.00;;;;;;4952570;27;20047;-69
2021/01/28 20:28:12;;;;;;;1.10;1.00;;;22.60;46.80;;;;;;4953678;28;20301;-69
2021/01/28 20:30:35;;;;;;;0.60;0.60;;;22.60;46.90;;;;;;4953438;28;20054;-69
2021/01/28 20:32:57;;;;;;;1.85;0.80;;;22.60;46.90;;;;;;4953496;28;20487;-70
2021/01/28 20:35:21;;;;;;;1.40;0.90;;;22.60;47.00;;;;;;4953307;28;20047;-69
2021/01/28 20:37:44;;;;;;;1.80;1.10;;;22.50;46.90;;;;;;4953680;28;20047;-70
2021/01/28 20:40:08;;;;;;;2.80;0.90;;;22.50;47.20;;;;;;4954227;28;20047;-69
2021/01/28 20:42:29;;;;;;;3.08;1.10;;;22.40;47.20;;;;;;4954137;28;20050;-70
2021/01/28 20:44:50;;;;;;;0.95;0.80;;;22.40;47.20;;;;;;4953247;28;20048;-70
2021/01/28 20:47:12;;;;;;;1.13;1.00;;;22.40;47.20;;;;;;4953484;28;20122;-70
2021/01/28 20:49:34;;;;;;;1.50;1.00;;;22.40;47.50;;;;;;4953229;28;20495;-70
2021/01/28 20:51:55;;;;;;;2.75;1.23;;;22.30;47.50;;;;;;4953452;28;20055;-71
2021/01/28 20:54:17;;;;;;;3.22;1.73;;;22.20;47.60;;;;;;4951923;28;20045;-70
2021/01/28 20:56:39;;;;;;;1.38;0.90;;;22.30;47.70;;;;;;4933668;28;20143;-69
2021/01/28 20:59:00;;;;;;;3.20;0.80;;;22.20;47.60;;;;;;4933751;28;20051;-70
2021/01/28 21:01:21;;;;;;;1.92;0.80;;;22.20;47.90;;;;;;4934655;28;20473;-70
2021/01/28 21:03:43;;;;;;;0.82;0.80;;;22.20;47.70;;;;;;4937488;28;20043;-69
2021/01/28 21:06:05;;;;;;;2.50;1.27;;;22.20;48.30;;;;;;4937284;28;20047;-69
2021/01/28 21:08:27;;;;;;;3.03;1.05;;;22.20;47.80;;;;;;4937437;28;20051;-71
2021/01/28 21:10:49;;;;;;;2.42;1.13;;;22.10;47.70;;;;;;4937544;28;20055;-71
2021/01/28 21:13:11;;;;;;;2.15;1.65;;;22.20;47.70;;;;;;4937346;28;20044;-71
2021/01/28 21:15:34;;;;;;;2.10;1.10;;;22.20;47.90;;;;;;4937254;28;20059;-71
2021/01/28 21:17:56;;;;;;;1.42;1.00;;;22.20;48.00;;;;;;4937587;28;20040;-70
2021/01/28 21:20:18;;;;;;;2.67;0.65;;;22.20;48.20;;;;;;4937427;28;20054;-70
2021/01/28 21:22:40;;;;;;;1.65;1.05;;;22.10;48.10;;;;;;4937871;28;20047;-74
2021/01/28 21:25:01;;;;;;;0.70;0.60;;;22.20;48.10;;;;;;4949208;27;20495;-70
2021/01/28 21:27:23;;;;;;;1.10;0.60;;;22.10;48.20;;;;;;4958189;27;20051;-70
2021/01/28 21:29:44;;;;;;;1.55;1.05;;;22.20;48.30;;;;;;4957998;27;20050;-70
2021/01/28 21:32:06;;;;;;;1.67;1.05;;;22.10;48.50;;;;;;4958548;27;20069;-70
2021/01/28 21:34:32;;;;;;;1.25;0.77;;;22.10;48.70;;;;;;4922212;28;20040;-71
2021/01/28 21:36:54;;;;;;;1.33;0.93;;;22.00;48.80;;;;;;4938262;28;20523;-70
2021/01/28 21:39:15;;;;;;;0.80;0.80;;;22.10;48.70;;;;;;4940147;28;20048;-70
2021/01/28 21:41:38;;;;;;;0.85;0.70;;;22.10;48.90;;;;;;4940355;28;20550;-70
2021/01/28 21:43:59;;;;;;;0.80;0.63;;;22.00;48.70;;;;;;4938906;28;20051;-70
2021/01/28 21:46:21;;;;;;;1.58;0.90;;;22.00;48.90;;;;;;4936446;28;20044;-69
2021/01/28 21:48:43;;;;;;;1.42;0.88;;;22.00;48.90;;;;;;4936550;28;20071;-70
2021/01/28 21:51:06;;;;;;;1.40;0.80;;;22.00;49.00;;;;;;4936588;28;20093;-70
2021/01/28 21:53:28;;;;;;;1.35;0.70;;;22.00;49.00;;;;;;4936472;28;20047;-69
2021/01/28 21:55:50;;;;;;;3.40;0.77;;;22.00;49.30;;;;;;4949893;27;20495;-70
2021/01/28 21:58:11;;;;;;;1.25;0.93;;;21.90;49.10;;;;;;4956098;27;20046;-71
2021/01/28 22:00:33;;;;;;;0.77;0.70;;;22.00;49.50;;;;;;4956035;27;20051;-70
2021/01/28 22:02:54;;;;;;;1.02;0.93;;;21.90;49.40;;;;;;4955875;27;20047;-70
2021/01/28 22:05:16;;;;;;;2.92;0.75;;;21.90;49.80;;;;;;4937860;27;20051;-72
2021/01/28 22:07:38;;;;;;;3.03;0.88;;;21.90;49.80;;;;;;4955898;27;20503;-70
2021/01/28 22:10:00;;;;;;;1.15;0.60;;;21.90;49.70;;;;;;4956112;27;20065;-70
2021/01/28 22:12:23;;;;;;;1.20;0.65;;;21.90;49.80;;;;;;4956257;27;20051;-70
2021/01/28 22:14:44;;;;;;;0.95;0.77;;;21.80;50.00;;;;;;4955442;27;20411;-70
2021/01/28 22:17:05;;;;;;;0.80;0.65;;;21.80;49.60;;;;;;4954055;27;20058;-72
2021/01/28 22:19:27;;;;;;;1.98;0.65;;;21.90;50.40;;;;;;4936629;28;20079;-72
2021/01/28 22:21:48;;;;;;;1.30;0.75;;;21.80;50.10;;;;;;4936329;28;20523;-70
2021/01/28 22:24:11;;;;;;;2.05;0.75;;;21.80;50.40;;;;;;4943768;27;20119;-70
2021/01/28 22:26:32;;;;;;;1.33;0.70;;;21.80;50.40;;;;;;4940956;27;20055;-73
2021/01/28 22:28:54;;;;;;;0.77;0.60;;;21.80;50.20;;;;;;4948672;27;20039;-70
2021/01/28 22:31:15;;;;;;;0.93;0.68;;;21.80;50.30;;;;;;4956072;27;20108;-70
2021/01/28 22:33:37;;;;;;;0.52;0.50;;;21.70;50.60;;;;;;4945243;27;20693;-73
2021/01/28 22:35:58;;;;;;;0.57;0.52;;;21.70;50.60;;;;;;4942907;27;20043;-70
2021/01/28 22:38:21;;;;;;;1.60;0.70;;;21.70;50.70;;;;;;4955950;27;20111;-70
2021/01/28 22:40:44;;;;;;;0.45;0.45;;;21.70;50.60;;;;;;4958371;27;20054;-70
2021/01/28 22:43:08;;;;;;;3.13;0.60;;;21.70;50.30;;;;;;4959377;27;20048;-71
2021/01/28 22:45:29;;;;;;;0.80;0.50;;;21.70;50.10;;;;;;4938306;27;20047;-69
2021/01/28 22:47:52;;;;;;;0.55;0.47;;;21.70;50.40;;;;;;4935548;28;20044;-71
2021/01/28 22:50:16;;;;;;;1.90;0.60;;;21.70;50.30;;;;;;4935195;28;20100;-70
2021/01/28 22:52:38;;;;;;;1.17;1.08;;;21.80;50.30;;;;;;4952234;27;20051;-70
2021/01/28 22:55:00;;;;;;;1.70;0.57;;;21.80;50.10;;;;;;4947069;27;20105;-70
2021/01/28 22:57:21;;;;;;;0.63;0.50;;;21.80;50.00;;;;;;4941015;27;20057;-70
2021/01/28 22:59:42;;;;;;;0.57;0.40;;;21.80;50.20;;;;;;4955417;27;20043;-69
2021/01/28 23:02:04;;;;;;;1.23;0.63;;;21.80;50.10;;;;;;4954642;27;20059;-70
2021/01/28 23:04:26;;;;;;;1.70;0.70;;;21.90;50.30;;;;;;4946541;27;20116;-70
2021/01/28 23:06:47;;;;;;;0.32;0.32;;;21.80;50.10;;;;;;4955105;27;20039;-70
2021/01/28 23:09:09;;;;;;;0.50;0.50;;;21.90;50.10;;;;;;4954656;27;20055;-71
2021/01/28 23:11:31;;;;;;;0.57;0.40;;;21.90;50.60;;;;;;4954654;27;20047;-70
2021/01/28 23:13:52;;;;;;;0.40;0.40;;;21.90;50.40;;;;;;4954710;27;20058;-69
2021/01/28 23:16:14;;;;;;;2.03;1.58;;;21.90;50.10;;;;;;4954221;27;20061;-70
2021/01/28 23:18:37;;;;;;;0.55;0.55;;;21.90;50.20;;;;;;4954279;27;20043;-69
2021/01/28 23:21:04;;;;;;;0.52;0.50;;;21.90;50.20;;;;;;4954259;27;20054;-70
2021/01/28 23:23:29;;;;;;;0.70;0.60;;;21.90;50.30;;;;;;4954243;27;20392;-70
2021/01/28 23:25:51;;;;;;;0.73;0.68;;;21.90;50.20;;;;;;4954177;27;20045;-70
2021/01/28 23:28:13;;;;;;;0.50;0.50;;;21.90;50.10;;;;;;4954118;27;20126;-70
2021/01/28 23:30:36;;;;;;;0.50;0.50;;;21.90;50.00;;;;;;4954276;27;20235;-71
2021/01/28 23:32:58;;;;;;;0.40;0.40;;;21.90;50.20;;;;;;4953926;27;20560;-70
2021/01/28 23:35:23;;;;;;;0.52;0.50;;;21.90;50.20;;;;;;4954224;27;20126;-70
2021/01/28 23:37:45;;;;;;;1.55;0.60;;;21.90;50.10;;;;;;4954441;27;20054;-70
2021/01/28 23:40:08;;;;;;;0.30;0.30;;;21.90;50.00;;;;;;4954431;27;20051;-70
2021/01/28 23:42:29;;;;;;;0.55;0.47;;;21.90;50.40;;;;;;4955289;27;20191;-72
2021/01/28 23:44:50;;;;;;;0.70;0.50;;;21.80;50.40;;;;;;4956208;27;20051;-70
2021/01/28 23:47:12;;;;;;;0.38;0.38;;;21.80;50.50;;;;;;4955751;27;20043;-70
2021/01/28 23:49:34;;;;;;;0.50;0.50;;;21.80;50.60;;;;;;4956051;27;20274;-72
2021/01/28 23:51:55;;;;;;;0.32;0.32;;;21.70;50.50;;;;;;4955649;27;20567;-71
2021/01/28 23:54:16;;;;;;;0.55;0.47;;;21.70;50.50;;;;;;4952722;27;20050;-70
2021/01/28 23:56:38;;;;;;;0.40;0.40;;;21.70;50.50;;;;;;4934225;28;20047;-69
2021/01/28 23:58:59;;;;;;;0.35;0.35;;;21.70;50.70;;;;;;4933972;28;20507;-70
